sensor_id;sensor_type;location;lat;lon;timestamp;pressure;altitude;pressure_sealevel;temperature;humidity
76201;BME280;64981;52.930;9.266;2023-02-28T00:00:17;102855.00;;;1.59;65.60
76201;BME280;64981;52.930;9.266;2023-02-28T00:02:43;102870.41;;;1.65;65.21
76201;BME280;64981;52.930;9.266;2023-02-28T00:05:10;102872.88;;;1.44;65.82
76201;BME280;64981;52.930;9.266;2023-02-28T00:07:37;102866.09;;;1.64;64.55
76201;BME280;64981;52.930;9.266;2023-02-28T00:10:04;102871.56;;;1.57;65.08
76201;BME280;64981;52.930;9.266;2023-02-28T00:12:32;102873.91;;;1.64;64.31
76201;BME280;64981;52.930;9.266;2023-02-28T00:14:58;102874.25;;;1.54;64.64
76201;BME280;64981;52.930;9.266;2023-02-28T00:17:23;102874.66;;;1.42;64.63
76201;BME280;64981;52.930;9.266;2023-02-28T00:19:51;102872.66;;;1.25;65.27
76201;BME280;64981;52.930;9.266;2023-02-28T00:22:18;102876.47;;;1.13;65.29
76201;BME280;64981;52.930;9.266;2023-02-28T00:24:45;102870.47;;;1.11;65.48
76201;BME280;64981;52.930;9.266;2023-02-28T00:27:11;102883.00;;;1.00;65.68
76201;BME280;64981;52.930;9.266;2023-02-28T00:29:37;102893.63;;;0.65;67.75
76201;BME280;64981;52.930;9.266;2023-02-28T00:32:06;102887.09;;;0.52;68.46
76201;BME280;64981;52.930;9.266;2023-02-28T00:34:32;102884.38;;;0.56;68.84
76201;BME280;64981;52.930;9.266;2023-02-28T00:37:05;102892.94;;;0.88;67.43
76201;BME280;64981;52.930;9.266;2023-02-28T00:39:32;102898.88;;;0.63;68.06
76201;BME280;64981;52.930;9.266;2023-02-28T00:41:58;102891.81;;;0.67;68.04
76201;BME280;64981;52.930;9.266;2023-02-28T00:44:24;102896.72;;;0.78;67.89
76201;BME280;64981;52.930;9.266;2023-02-28T00:46:49;102894.25;;;0.73;67.56
76201;BME280;64981;52.930;9.266;2023-02-28T00:49:17;102895.06;;;0.75;67.41
76201;BME280;64981;52.930;9.266;2023-02-28T00:51:43;102889.09;;;0.72;67.58
76201;BME280;64981;52.930;9.266;2023-02-28T00:54:08;102883.16;;;0.66;67.92
76201;BME280;64981;52.930;9.266;2023-02-28T00:56:34;102885.47;;;0.76;67.34
76201;BME280;64981;52.930;9.266;2023-02-28T00:58:59;102892.16;;;0.56;67.94
76201;BME280;64981;52.930;9.266;2023-02-28T01:01:25;102888.25;;;0.71;67.59
76201;BME280;64981;52.930;9.266;2023-02-28T01:03:50;102894.75;;;0.56;67.86
76201;BME280;64981;52.930;9.266;2023-02-28T01:06:16;102888.16;;;0.45;68.43
76201;BME280;64981;52.930;9.266;2023-02-28T01:08:42;102889.78;;;0.49;68.37
76201;BME280;64981;52.930;9.266;2023-02-28T01:11:09;102896.72;;;0.48;68.22
76201;BME280;64981;52.930;9.266;2023-02-28T01:13:36;102891.97;;;0.62;67.45
76201;BME280;64981;52.930;9.266;2023-02-28T01:16:02;102886.22;;;0.51;68.12
76201;BME280;64981;52.930;9.266;2023-02-28T01:18:27;102891.44;;;0.51;68.07
76201;BME280;64981;52.930;9.266;2023-02-28T01:20:54;102897.38;;;0.56;67.55
76201;BME280;64981;52.930;9.266;2023-02-28T01:23:20;102897.75;;;0.72;67.04
76201;BME280;64981;52.930;9.266;2023-02-28T01:25:49;102897.75;;;0.43;68.22
76201;BME280;64981;52.930;9.266;2023-02-28T01:28:15;102906.53;;;0.39;68.29
76201;BME280;64981;52.930;9.266;2023-02-28T01:30:41;102902.91;;;0.44;67.82
76201;BME280;64981;52.930;9.266;2023-02-28T01:33:07;102902.88;;;0.46;68.08
76201;BME280;64981;52.930;9.266;2023-02-28T01:35:33;102891.13;;;0.33;68.56
76201;BME280;64981;52.930;9.266;2023-02-28T01:38:00;102893.50;;;0.40;68.21
76201;BME280;64981;52.930;9.266;2023-02-28T01:40:26;102900.16;;;0.50;67.94
76201;BME280;64981;52.930;9.266;2023-02-28T01:42:51;102897.47;;;0.53;67.33
76201;BME280;64981;52.930;9.266;2023-02-28T01:45:28;102901.13;;;0.46;68.03
76201;BME280;64981;52.930;9.266;2023-02-28T01:48:02;102903.94;;;0.39;68.18
76201;BME280;64981;52.930;9.266;2023-02-28T01:50:35;102893.63;;;0.36;68.32
76201;BME280;64981;52.930;9.266;2023-02-28T01:53:07;102902.16;;;0.41;68.02
76201;BME280;64981;52.930;9.266;2023-02-28T01:55:37;102895.19;;;0.41;67.95
76201;BME280;64981;52.930;9.266;2023-02-28T01:58:06;102896.09;;;0.40;67.64
76201;BME280;64981;52.930;9.266;2023-02-28T02:00:34;102895.44;;;0.03;68.86
76201;BME280;64981;52.930;9.266;2023-02-28T02:03:06;102895.53;;;-0.00;69.23
76201;BME280;64981;52.930;9.266;2023-02-28T02:05:37;102891.59;;;0.16;68.60
76201;BME280;64981;52.930;9.266;2023-02-28T02:08:08;102886.44;;;0.15;68.78
76201;BME280;64981;52.930;9.266;2023-02-28T02:10:44;102887.38;;;0.12;68.62
76201;BME280;64981;52.930;9.266;2023-02-28T02:13:25;102880.13;;;0.23;68.48
76201;BME280;64981;52.930;9.266;2023-02-28T02:16:23;102892.06;;;0.30;68.09
76201;BME280;64981;52.930;9.266;2023-02-28T02:18:57;102888.09;;;0.17;68.34
76201;BME280;64981;52.930;9.266;2023-02-28T02:33:36;102885.16;;;-0.02;69.02
76201;BME280;64981;52.930;9.266;2023-02-28T02:36:16;102887.50;;;0.07;68.51
76201;BME280;64981;52.930;9.266;2023-02-28T02:41:41;102879.94;;;-0.00;68.79
76201;BME280;64981;52.930;9.266;2023-02-28T02:44:21;102894.59;;;0.01;68.80
76201;BME280;64981;52.930;9.266;2023-02-28T02:46:53;102891.22;;;-0.01;68.77
76201;BME280;64981;52.930;9.266;2023-02-28T02:49:26;102892.97;;;-0.02;68.81
76201;BME280;64981;52.930;9.266;2023-02-28T02:51:55;102894.34;;;0.10;68.43
76201;BME280;64981;52.930;9.266;2023-02-28T02:54:27;102894.75;;;-0.04;68.94
76201;BME280;64981;52.930;9.266;2023-02-28T02:56:59;102888.69;;;-0.36;70.29
76201;BME280;64981;52.930;9.266;2023-02-28T02:59:28;102899.38;;;-0.15;68.83
76201;BME280;64981;52.930;9.266;2023-02-28T03:01:59;102895.91;;;-0.15;68.83
76201;BME280;64981;52.930;9.266;2023-02-28T03:04:32;102896.25;;;0.05;68.19
76201;BME280;64981;52.930;9.266;2023-02-28T03:06:59;102890.94;;;-0.23;68.97
76201;BME280;64981;52.930;9.266;2023-02-28T03:09:26;102889.72;;;-0.10;68.35
76201;BME280;64981;52.930;9.266;2023-02-28T03:11:55;102889.16;;;-0.21;68.78
76201;BME280;64981;52.930;9.266;2023-02-28T03:14:43;102881.03;;;-0.41;69.55
76201;BME280;64981;52.930;9.266;2023-02-28T03:17:35;102885.41;;;-0.43;69.69
76201;BME280;64981;52.930;9.266;2023-02-28T03:23:15;102885.94;;;-0.30;69.12
76201;BME280;64981;52.930;9.266;2023-02-28T03:25:56;102888.66;;;-0.35;69.39
76201;BME280;64981;52.930;9.266;2023-02-28T03:28:35;102888.78;;;-0.39;69.57
76201;BME280;64981;52.930;9.266;2023-02-28T03:31:15;102883.81;;;-0.49;69.85
76201;BME280;64981;52.930;9.266;2023-02-28T03:33:50;102882.09;;;-0.50;69.64
76201;BME280;64981;52.930;9.266;2023-02-28T03:36:28;102890.81;;;-0.51;69.74
76201;BME280;64981;52.930;9.266;2023-02-28T03:39:02;102885.38;;;-0.42;69.40
76201;BME280;64981;52.930;9.266;2023-02-28T03:41:36;102890.41;;;-0.35;68.87
76201;BME280;64981;52.930;9.266;2023-02-28T03:44:12;102887.81;;;-0.35;69.12
76201;BME280;64981;52.930;9.266;2023-02-28T03:46:48;102898.53;;;-0.49;69.96
76201;BME280;64981;52.930;9.266;2023-02-28T03:49:22;102898.91;;;-0.63;69.95
76201;BME280;64981;52.930;9.266;2023-02-28T03:51:51;102891.19;;;-0.66;69.65
76201;BME280;64981;52.930;9.266;2023-02-28T03:54:25;102895.59;;;-0.69;69.86
76201;BME280;64981;52.930;9.266;2023-02-28T03:57:03;102896.47;;;-0.70;69.69
76201;BME280;64981;52.930;9.266;2023-02-28T03:59:44;102891.03;;;-0.60;69.54
76201;BME280;64981;52.930;9.266;2023-02-28T04:02:10;102901.53;;;-0.64;69.63
76201;BME280;64981;52.930;9.266;2023-02-28T04:04:36;102889.81;;;-0.80;70.02
76201;BME280;64981;52.930;9.266;2023-02-28T04:07:07;102882.94;;;-0.81;70.05
76201;BME280;64981;52.930;9.266;2023-02-28T04:09:33;102888.84;;;-0.76;69.85
76201;BME280;64981;52.930;9.266;2023-02-28T04:11:58;102889.78;;;-0.79;70.23
76201;BME280;64981;52.930;9.266;2023-02-28T04:14:25;102890.28;;;-0.65;69.59
76201;BME280;64981;52.930;9.266;2023-02-28T04:16:50;102895.38;;;-0.60;69.30
76201;BME280;64981;52.930;9.266;2023-02-28T04:19:17;102898.34;;;-0.75;69.63
76201;BME280;64981;52.930;9.266;2023-02-28T04:21:46;102901.25;;;-0.87;70.21
76201;BME280;64981;52.930;9.266;2023-02-28T04:24:14;102900.38;;;-0.88;70.16
76201;BME280;64981;52.930;9.266;2023-02-28T04:26:44;102903.13;;;-0.96;70.29
76201;BME280;64981;52.930;9.266;2023-02-28T04:29:12;102897.16;;;-0.99;70.32
76201;BME280;64981;52.930;9.266;2023-02-28T04:31:39;102900.75;;;-1.03;70.41
76201;BME280;64981;52.930;9.266;2023-02-28T04:34:05;102897.88;;;-0.92;70.16
76201;BME280;64981;52.930;9.266;2023-02-28T04:36:31;102894.56;;;-0.99;69.95
76201;BME280;64981;52.930;9.266;2023-02-28T04:38:56;102893.78;;;-1.03;70.46
76201;BME280;64981;52.930;9.266;2023-02-28T04:41:22;102907.69;;;-1.05;70.43
76201;BME280;64981;52.930;9.266;2023-02-28T04:43:48;102898.25;;;-1.09;70.87
76201;BME280;64981;52.930;9.266;2023-02-28T04:46:14;102906.81;;;-1.06;70.70
76201;BME280;64981;52.930;9.266;2023-02-28T04:48:40;102907.75;;;-0.71;69.10
76201;BME280;64981;52.930;9.266;2023-02-28T04:51:09;102907.97;;;-0.80;69.40
76201;BME280;64981;52.930;9.266;2023-02-28T04:53:38;102897.88;;;-0.91;69.36
76201;BME280;64981;52.930;9.266;2023-02-28T04:56:04;102912.66;;;-0.96;69.97
76201;BME280;64981;52.930;9.266;2023-02-28T04:58:32;102900.38;;;-0.88;69.16
76201;BME280;64981;52.930;9.266;2023-02-28T05:01:03;102902.28;;;-0.96;69.52
76201;BME280;64981;52.930;9.266;2023-02-28T05:03:29;102898.19;;;-1.06;69.89
76201;BME280;64981;52.930;9.266;2023-02-28T05:05:55;102900.28;;;-1.22;70.34
76201;BME280;64981;52.930;9.266;2023-02-28T05:08:20;102910.34;;;-1.07;70.34
76201;BME280;64981;52.930;9.266;2023-02-28T05:10:46;102905.59;;;-1.28;71.06
76201;BME280;64981;52.930;9.266;2023-02-28T05:13:12;102906.47;;;-1.27;71.00
76201;BME280;64981;52.930;9.266;2023-02-28T05:15:38;102905.66;;;-1.29;70.88
76201;BME280;64981;52.930;9.266;2023-02-28T05:18:04;102913.00;;;-1.10;70.47
76201;BME280;64981;52.930;9.266;2023-02-28T05:20:30;102912.88;;;-1.05;70.00
76201;BME280;64981;52.930;9.266;2023-02-28T05:23:02;102909.31;;;-1.39;71.00
76201;BME280;64981;52.930;9.266;2023-02-28T05:25:28;102919.34;;;-1.66;71.99
76201;BME280;64981;52.930;9.266;2023-02-28T05:27:54;102915.81;;;-1.60;71.91
76201;BME280;64981;52.930;9.266;2023-02-28T05:30:19;102917.38;;;-1.53;71.60
76201;BME280;64981;52.930;9.266;2023-02-28T05:32:50;102912.25;;;-1.56;71.55
76201;BME280;64981;52.930;9.266;2023-02-28T05:35:16;102914.84;;;-1.56;71.53
76201;BME280;64981;52.930;9.266;2023-02-28T05:37:42;102925.25;;;-1.58;71.51
76201;BME280;64981;52.930;9.266;2023-02-28T05:40:08;102931.19;;;-1.53;71.40
76201;BME280;64981;52.930;9.266;2023-02-28T05:42:36;102926.13;;;-1.59;71.55
76201;BME280;64981;52.930;9.266;2023-02-28T05:45:02;102930.50;;;-1.61;71.87
76201;BME280;64981;52.930;9.266;2023-02-28T05:47:27;102929.03;;;-1.72;72.27
76201;BME280;64981;52.930;9.266;2023-02-28T05:49:53;102931.44;;;-1.65;72.14
76201;BME280;64981;52.930;9.266;2023-02-28T05:52:19;102926.66;;;-1.43;71.31
76201;BME280;64981;52.930;9.266;2023-02-28T05:54:46;102929.03;;;-1.32;70.58
76201;BME280;64981;52.930;9.266;2023-02-28T05:57:11;102935.56;;;-1.15;69.89
76201;BME280;64981;52.930;9.266;2023-02-28T05:59:37;102938.41;;;-1.27;70.38
76201;BME280;64981;52.930;9.266;2023-02-28T06:02:06;102937.63;;;-1.29;70.33
76201;BME280;64981;52.930;9.266;2023-02-28T06:04:36;102940.66;;;-1.50;71.27
76201;BME280;64981;52.930;9.266;2023-02-28T06:07:01;102940.25;;;-1.75;72.05
76201;BME280;64981;52.930;9.266;2023-02-28T06:09:27;102928.28;;;-1.79;72.30
76201;BME280;64981;52.930;9.266;2023-02-28T06:11:53;102903.19;;;-1.77;71.38
76201;BME280;64981;52.930;9.266;2023-02-28T06:14:20;102928.13;;;-1.71;71.81
76201;BME280;64981;52.930;9.266;2023-02-28T06:16:46;102934.13;;;-1.69;71.69
76201;BME280;64981;52.930;9.266;2023-02-28T06:19:12;102930.50;;;-1.62;71.31
76201;BME280;64981;52.930;9.266;2023-02-28T06:21:38;102945.25;;;-1.64;71.81
76201;BME280;64981;52.930;9.266;2023-02-28T06:24:05;102948.38;;;-1.48;71.18
76201;BME280;64981;52.930;9.266;2023-02-28T06:26:32;102937.69;;;-1.33;71.24
76201;BME280;64981;52.930;9.266;2023-02-28T06:28:57;102943.72;;;-0.93;69.52
76201;BME280;64981;52.930;9.266;2023-02-28T06:31:23;102953.69;;;-0.39;67.88
76201;BME280;64981;52.930;9.266;2023-02-28T06:33:51;102958.31;;;0.16;65.76
76201;BME280;64981;52.930;9.266;2023-02-28T06:36:17;102956.25;;;0.57;64.55
76201;BME280;64981;52.930;9.266;2023-02-28T06:38:44;102947.59;;;0.86;63.40
76201;BME280;64981;52.930;9.266;2023-02-28T06:41:10;102950.09;;;1.18;61.84
76201;BME280;64981;52.930;9.266;2023-02-28T06:43:40;102943.28;;;1.41;61.20
76201;BME280;64981;52.930;9.266;2023-02-28T06:46:09;102936.50;;;1.88;59.47
76201;BME280;64981;52.930;9.266;2023-02-28T06:48:36;102931.31;;;2.59;57.61
76201;BME280;64981;52.930;9.266;2023-02-28T06:51:05;102938.28;;;3.25;55.53
76201;BME280;64981;52.930;9.266;2023-02-28T06:53:32;102903.22;;;4.11;52.93
76201;BME280;64981;52.930;9.266;2023-02-28T06:55:58;102948.22;;;4.39;52.17
76201;BME280;64981;52.930;9.266;2023-02-28T06:58:23;102942.91;;;5.16;50.33
76201;BME280;64981;52.930;9.266;2023-02-28T07:00:52;102944.03;;;5.46;49.14
76201;BME280;64981;52.930;9.266;2023-02-28T07:03:17;102949.47;;;6.27;48.08
76201;BME280;64981;52.930;9.266;2023-02-28T07:05:44;102947.31;;;6.84;46.70
76201;BME280;64981;52.930;9.266;2023-02-28T07:08:10;102949.66;;;6.73;46.19
76201;BME280;64981;52.930;9.266;2023-02-28T07:10:37;102939.38;;;7.76;44.46
76201;BME280;64981;52.930;9.266;2023-02-28T07:13:05;102953.84;;;7.24;45.43
76201;BME280;64981;52.930;9.266;2023-02-28T07:15:30;102949.28;;;7.57;45.13
76201;BME280;64981;52.930;9.266;2023-02-28T07:17:56;102940.69;;;8.55;43.46
76201;BME280;64981;52.930;9.266;2023-02-28T07:20:23;102952.72;;;9.14;41.89
76201;BME280;64981;52.930;9.266;2023-02-28T07:22:49;102949.91;;;9.17;41.85
76201;BME280;64981;52.930;9.266;2023-02-28T07:25:22;102941.00;;;9.97;40.02
76201;BME280;64981;52.930;9.266;2023-02-28T07:27:48;102945.84;;;10.03;40.50
76201;BME280;64981;52.930;9.266;2023-02-28T07:30:14;102951.47;;;10.62;39.74
76201;BME280;64981;52.930;9.266;2023-02-28T07:32:40;102943.84;;;11.30;38.53
76201;BME280;64981;52.930;9.266;2023-02-28T07:35:06;102932.81;;;9.62;40.81
76201;BME280;64981;52.930;9.266;2023-02-28T07:37:31;102949.00;;;8.62;43.66
76201;BME280;64981;52.930;9.266;2023-02-28T07:40:04;102944.84;;;9.00;43.19
76201;BME280;64981;52.930;9.266;2023-02-28T07:42:34;102946.56;;;8.59;44.19
76201;BME280;64981;52.930;9.266;2023-02-28T07:45:01;102940.53;;;7.27;46.67
76201;BME280;64981;52.930;9.266;2023-02-28T07:47:26;102941.06;;;7.18;47.24
76201;BME280;64981;52.930;9.266;2023-02-28T07:49:54;102959.59;;;6.83;48.70
76201;BME280;64981;52.930;9.266;2023-02-28T07:52:20;102966.81;;;6.47;49.72
76201;BME280;64981;52.930;9.266;2023-02-28T07:54:46;102968.78;;;6.26;50.12
76201;BME280;64981;52.930;9.266;2023-02-28T07:57:11;102958.19;;;6.61;50.17
76201;BME280;64981;52.930;9.266;2023-02-28T07:59:37;102967.75;;;7.10;48.76
76201;BME280;64981;52.930;9.266;2023-02-28T08:02:03;102956.91;;;7.46;48.10
76201;BME280;64981;52.930;9.266;2023-02-28T08:04:32;102965.81;;;7.59;47.93
76201;BME280;64981;52.930;9.266;2023-02-28T08:06:58;102959.88;;;9.12;45.00
76201;BME280;64981;52.930;9.266;2023-02-28T08:09:24;102967.91;;;9.11;44.24
76201;BME280;64981;52.930;9.266;2023-02-28T08:11:50;102955.97;;;9.32;43.83
76201;BME280;64981;52.930;9.266;2023-02-28T08:14:15;102956.84;;;9.45;43.17
76201;BME280;64981;52.930;9.266;2023-02-28T08:16:41;102957.09;;;10.32;41.80
76201;BME280;64981;52.930;9.266;2023-02-28T08:19:08;102943.25;;;10.41;41.18
76201;BME280;64981;52.930;9.266;2023-02-28T08:21:45;102955.50;;;10.55;40.91
76201;BME280;64981;52.930;9.266;2023-02-28T08:24:11;102953.34;;;9.97;41.83
76201;BME280;64981;52.930;9.266;2023-02-28T08:26:36;102954.41;;;9.94;41.85
76201;BME280;64981;52.930;9.266;2023-02-28T08:29:02;102944.19;;;9.90;42.49
76201;BME280;64981;52.930;9.266;2023-02-28T08:31:29;102916.91;;;9.76;42.54
76201;BME280;64981;52.930;9.266;2023-02-28T08:33:54;102883.00;;;9.18;42.87
76201;BME280;64981;52.930;9.266;2023-02-28T08:36:25;102867.75;;;8.97;43.72
76201;BME280;64981;52.930;9.266;2023-02-28T08:38:51;102877.34;;;9.24;43.25
76201;BME280;64981;52.930;9.266;2023-02-28T08:41:17;102967.22;;;10.38;42.35
76201;BME280;64981;52.930;9.266;2023-02-28T08:43:52;102922.22;;;10.40;41.38
76201;BME280;64981;52.930;9.266;2023-02-28T08:46:24;102949.38;;;10.54;41.39
76201;BME280;64981;52.930;9.266;2023-02-28T08:52:12;102900.28;;;10.63;41.46
76201;BME280;64981;52.930;9.266;2023-02-28T08:54:41;102946.44;;;10.82;40.46
76201;BME280;64981;52.930;9.266;2023-02-28T08:57:07;102897.59;;;10.52;40.17
76201;BME280;64981;52.930;9.266;2023-02-28T08:59:32;102933.06;;;10.60;40.65
76201;BME280;64981;52.930;9.266;2023-02-28T09:01:58;102892.41;;;10.38;40.35
76201;BME280;64981;52.930;9.266;2023-02-28T09:04:24;102959.72;;;10.57;38.87
76201;BME280;64981;52.930;9.266;2023-02-28T09:06:50;102933.22;;;10.46;38.79
76201;BME280;64981;52.930;9.266;2023-02-28T09:09:16;102959.72;;;10.45;39.57
76201;BME280;64981;52.930;9.266;2023-02-28T09:11:41;102959.91;;;10.16;39.52
76201;BME280;64981;52.930;9.266;2023-02-28T09:14:07;102941.63;;;9.88;39.06
76201;BME280;64981;52.930;9.266;2023-02-28T09:16:34;102961.22;;;10.23;38.32
76201;BME280;64981;52.930;9.266;2023-02-28T09:19:00;102964.78;;;10.60;38.39
76201;BME280;64981;52.930;9.266;2023-02-28T09:21:26;102961.59;;;11.04;37.65
76201;BME280;64981;52.930;9.266;2023-02-28T09:23:52;102961.28;;;11.32;37.19
76201;BME280;64981;52.930;9.266;2023-02-28T09:26:24;102954.19;;;11.33;35.54
76201;BME280;64981;52.930;9.266;2023-02-28T09:28:53;102964.25;;;11.52;34.89
76201;BME280;64981;52.930;9.266;2023-02-28T09:31:23;102971.00;;;12.36;33.49
76201;BME280;64981;52.930;9.266;2023-02-28T09:33:52;102970.16;;;12.69;31.76
76201;BME280;64981;52.930;9.266;2023-02-28T09:36:19;102955.34;;;13.00;32.27
76201;BME280;64981;52.930;9.266;2023-02-28T09:38:45;102959.31;;;12.94;31.61
76201;BME280;64981;52.930;9.266;2023-02-28T09:41:16;102953.16;;;13.37;31.38
76201;BME280;64981;52.930;9.266;2023-02-28T09:43:47;102957.53;;;13.79;28.76
76201;BME280;64981;52.930;9.266;2023-02-28T09:46:44;102953.47;;;14.17;28.92
76201;BME280;64981;52.930;9.266;2023-02-28T09:49:34;102962.38;;;13.53;28.51
76201;BME280;64981;52.930;9.266;2023-02-28T09:52:12;102961.81;;;13.50;28.00
76201;BME280;64981;52.930;9.266;2023-02-28T09:54:39;102966.22;;;13.29;29.65
76201;BME280;64981;52.930;9.266;2023-02-28T09:57:19;102966.28;;;13.38;29.49
76201;BME280;64981;52.930;9.266;2023-02-28T10:03:04;102971.81;;;13.15;29.86
76201;BME280;64981;52.930;9.266;2023-02-28T10:05:39;102965.44;;;12.95;29.02
76201;BME280;64981;52.930;9.266;2023-02-28T10:08:15;102963.59;;;14.02;29.05
76201;BME280;64981;52.930;9.266;2023-02-28T10:10:47;102970.63;;;13.71;29.02
76201;BME280;64981;52.930;9.266;2023-02-28T10:13:41;102974.69;;;14.68;28.49
76201;BME280;64981;52.930;9.266;2023-02-28T10:16:26;102973.06;;;15.16;27.31
76201;BME280;64981;52.930;9.266;2023-02-28T10:19:03;102970.69;;;15.23;27.32
76201;BME280;64981;52.930;9.266;2023-02-28T10:21:39;102968.13;;;15.12;27.52
76201;BME280;64981;52.930;9.266;2023-02-28T10:24:20;102971.69;;;14.82;27.45
76201;BME280;64981;52.930;9.266;2023-02-28T10:26:48;102975.38;;;14.30;27.39
76201;BME280;64981;52.930;9.266;2023-02-28T10:29:16;102978.44;;;16.30;25.95
76201;BME280;64981;52.930;9.266;2023-02-28T10:31:42;102978.25;;;15.66;25.76
76201;BME280;64981;52.930;9.266;2023-02-28T10:34:12;102963.78;;;14.71;26.21
76201;BME280;64981;52.930;9.266;2023-02-28T10:36:38;102963.13;;;15.56;26.51
76201;BME280;64981;52.930;9.266;2023-02-28T10:42:05;102969.56;;;14.85;26.93
76201;BME280;64981;52.930;9.266;2023-02-28T10:44:42;102962.81;;;15.21;25.83
76201;BME280;64981;52.930;9.266;2023-02-28T10:47:15;102958.50;;;15.49;26.11
76201;BME280;64981;52.930;9.266;2023-02-28T10:49:48;102970.66;;;15.90;25.88
76201;BME280;64981;52.930;9.266;2023-02-28T10:52:33;102969.16;;;15.68;25.81
76201;BME280;64981;52.930;9.266;2023-02-28T10:55:21;102975.88;;;15.82;25.47
76201;BME280;64981;52.930;9.266;2023-02-28T10:58:24;102970.81;;;15.88;26.66
76201;BME280;64981;52.930;9.266;2023-02-28T11:00:51;102964.09;;;15.46;26.31
76201;BME280;64981;52.930;9.266;2023-02-28T11:03:31;102963.53;;;15.42;25.51
76201;BME280;64981;52.930;9.266;2023-02-28T11:05:58;102959.72;;;15.83;25.25
76201;BME280;64981;52.930;9.266;2023-02-28T11:08:29;102946.97;;;15.20;26.38
76201;BME280;64981;52.930;9.266;2023-02-28T11:10:58;102891.94;;;14.61;26.06
76201;BME280;64981;52.930;9.266;2023-02-28T11:13:32;102913.97;;;14.33;26.27
76201;BME280;64981;52.930;9.266;2023-02-28T11:16:03;102946.44;;;15.26;25.78
76201;BME280;64981;52.930;9.266;2023-02-28T11:18:50;102941.63;;;15.87;25.38
76201;BME280;64981;52.930;9.266;2023-02-28T11:21:25;102935.63;;;15.08;25.72
76201;BME280;64981;52.930;9.266;2023-02-28T11:24:04;102920.50;;;13.78;25.73
76201;BME280;64981;52.930;9.266;2023-02-28T11:26:43;102932.28;;;14.66;26.05
76201;BME280;64981;52.930;9.266;2023-02-28T11:29:16;102931.31;;;15.07;26.70
76201;BME280;64981;52.930;9.266;2023-02-28T11:32:20;102920.00;;;14.44;26.08
76201;BME280;64981;52.930;9.266;2023-02-28T11:35:14;102918.94;;;13.96;26.84
76201;BME280;64981;52.930;9.266;2023-02-28T11:38:00;102927.16;;;13.93;25.93
76201;BME280;64981;52.930;9.266;2023-02-28T11:40:43;102925.31;;;14.75;25.83
76201;BME280;64981;52.930;9.266;2023-02-28T11:43:33;102926.88;;;14.87;25.51
76201;BME280;64981;52.930;9.266;2023-02-28T11:49:35;102886.06;;;14.57;25.84
76201;BME280;64981;52.930;9.266;2023-02-28T11:52:20;102849.19;;;14.34;26.94
76201;BME280;64981;52.930;9.266;2023-02-28T11:58:17;102918.88;;;14.07;26.84
76201;BME280;64981;52.930;9.266;2023-02-28T12:01:09;102886.16;;;13.65;26.20
76201;BME280;64981;52.930;9.266;2023-02-28T12:04:04;102912.84;;;13.84;26.01
76201;BME280;64981;52.930;9.266;2023-02-28T12:06:51;102900.53;;;13.42;27.85
76201;BME280;64981;52.930;9.266;2023-02-28T12:12:40;102905.22;;;13.49;27.50
76201;BME280;64981;52.930;9.266;2023-02-28T12:15:46;102907.25;;;12.60;28.37
76201;BME280;64981;52.930;9.266;2023-02-28T12:18:34;102906.25;;;12.94;27.89
76201;BME280;64981;52.930;9.266;2023-02-28T12:21:31;102904.59;;;12.71;27.99
76201;BME280;64981;52.930;9.266;2023-02-28T12:24:23;102840.47;;;12.12;28.62
76201;BME280;64981;52.930;9.266;2023-02-28T12:26:56;102900.06;;;12.18;29.72
76201;BME280;64981;52.930;9.266;2023-02-28T12:29:29;102889.28;;;12.75;28.88
76201;BME280;64981;52.930;9.266;2023-02-28T12:32:05;102883.41;;;13.35;28.56
76201;BME280;64981;52.930;9.266;2023-02-28T12:34:47;102802.34;;;12.35;29.24
76201;BME280;64981;52.930;9.266;2023-02-28T12:37:38;102799.28;;;11.86;28.97
76201;BME280;64981;52.930;9.266;2023-02-28T12:40:12;102838.59;;;12.46;28.61
76201;BME280;64981;52.930;9.266;2023-02-28T12:43:04;102870.63;;;12.54;29.77
76201;BME280;64981;52.930;9.266;2023-02-28T12:46:00;102757.38;;;11.91;29.25
76201;BME280;64981;52.930;9.266;2023-02-28T12:49:22;102855.28;;;12.80;28.77
76201;BME280;64981;52.930;9.266;2023-02-28T12:55:54;102837.63;;;12.47;29.33
76201;BME280;64981;52.930;9.266;2023-02-28T12:58:47;102774.66;;;12.28;29.92
76201;BME280;64981;52.930;9.266;2023-02-28T13:01:33;102840.59;;;13.08;29.42
76201;BME280;64981;52.930;9.266;2023-02-28T13:04:24;102819.38;;;13.08;29.17
76201;BME280;64981;52.930;9.266;2023-02-28T13:10:05;102775.69;;;12.48;28.96
76201;BME280;64981;52.930;9.266;2023-02-28T13:12:49;102770.44;;;12.26;29.46
76201;BME280;64981;52.930;9.266;2023-02-28T13:15:41;102754.09;;;12.21;29.40
76201;BME280;64981;52.930;9.266;2023-02-28T13:18:30;102838.53;;;12.03;29.34
76201;BME280;64981;52.930;9.266;2023-02-28T13:21:32;102813.59;;;12.06;30.30
76201;BME280;64981;52.930;9.266;2023-02-28T13:25:02;102819.66;;;12.51;29.09
76201;BME280;64981;52.930;9.266;2023-02-28T13:27:44;102804.59;;;12.62;28.38
76201;BME280;64981;52.930;9.266;2023-02-28T13:33:36;102822.72;;;12.35;30.21
76201;BME280;64981;52.930;9.266;2023-02-28T13:36:26;102810.31;;;12.47;29.76
76201;BME280;64981;52.930;9.266;2023-02-28T13:38:58;102783.88;;;12.56;30.21
76201;BME280;64981;52.930;9.266;2023-02-28T13:41:48;102737.94;;;12.24;30.00
76201;BME280;64981;52.930;9.266;2023-02-28T13:44:23;102737.16;;;12.12;29.08
76201;BME280;64981;52.930;9.266;2023-02-28T13:47:29;102802.69;;;12.53;29.46
76201;BME280;64981;52.930;9.266;2023-02-28T13:53:24;102799.13;;;12.21;28.96
76201;BME280;64981;52.930;9.266;2023-02-28T13:59:22;102787.56;;;11.55;30.15
76201;BME280;64981;52.930;9.266;2023-02-28T14:02:40;102808.69;;;11.90;30.80
76201;BME280;64981;52.930;9.266;2023-02-28T14:05:19;102809.47;;;12.35;29.62
76201;BME280;64981;52.930;9.266;2023-02-28T14:07:57;102796.63;;;12.08;31.18
76201;BME280;64981;52.930;9.266;2023-02-28T14:10:30;102752.28;;;12.10;29.41
76201;BME280;64981;52.930;9.266;2023-02-28T14:13:01;102762.66;;;12.13;29.27